Aden, Illinois
Current Conditions -  °F | °C
As of 3:55 PM on Saturday 25 Oct 2014 (Local Time) from KFWC Reporting Station
Clear Clear  
Wind Chill: 80°   Ceiling: Unl
Heat Index: 80°   Visibility: 10mi
Dew Point: 53°   Wind: 0mph
Humidity: 39%   Direction: NA
Pressure: 29.97"   Gusts: NA
Location:  38.3069°N, 88.55°W
Report Text: KFWC 252055Z AUTO 00000KT 10SM CLR 26/11 A2997 RMK AO1 T02640114
Loading
Personal Weather Stations






























Interactive Weather Map
Tropical Storm Tracking
New forecast layout! Learn more

10-Day Weather Forecast

Advertisements
Track Severe Weather on mobile